This is the latest recevied weather packets stored in our database for station/object OE-11204. If no packets are shown the sender has not sent any weather packets the latest 10 day(s).
| Time | Temp. | Humidity | Pressure | Rain* | Wind** | Luminosity | Snow |
|---|---|---|---|---|---|---|---|
| 1788110715 | 25° C | 48% | 1012.3 hPa | 0 mm | - | 50 W/m² | - |
| 1788109888 | 25° C | 49% | 1012.3 hPa | 0 mm | - | 50 W/m² | - |
| 1788109515 | 25° C | 50% | 1012.2 hPa | 0 mm | - | 56 W/m² | - |
| 1788108914 | 25.56° C | 47% | 1012 hPa | 0 mm | - | 87 W/m² | - |
| 1788108088 | 26.11° C | 45% | 1011.9 hPa | 0 mm | - | 111 W/m² | - |
| 1788107715 | 26.11° C | 44% | 1011.8 hPa | 0 mm | - | 74 W/m² | - |
| 1788107115 | 26.67° C | 45% | 1011.6 hPa | 0 mm | - | 136 W/m² | - |
| 1788106288 | 26.67° C | 44% | 1011.6 hPa | 0 mm | - | 124 W/m² | - |
| 1788105915 | 26.67° C | 44% | 1011.5 hPa | 0 mm | - | 105 W/m² | - |
| 1788105315 | 27.22° C | 43% | 1011.4 hPa | 0 mm | - | 210 W/m² | - |
| 1788104488 | 27.78° C | 41% | 1011.3 hPa | 0 mm | - | 347 W/m² | - |
| 1788104115 | 28.33° C | 42% | 1011.2 hPa | 0 mm | - | 377 W/m² | - |
| 1788103515 | 28.33° C | 46% | 1011.2 hPa | 0 mm | - | 421 W/m² | - |
| 1788102687 | 28.33° C | 46% | 1011.2 hPa | 0 mm | - | 458 W/m² | - |
| 1788102315 | 28.33° C | 46% | 1011.3 hPa | 0 mm | - | 483 W/m² | - |
| 1788101715 | 28.33° C | 47% | 1011.3 hPa | 0 mm | - | 538 W/m² | - |
| 1788100888 | 28.33° C | 45% | 1011.3 hPa | 0 mm | - | 545 W/m² | - |
| 1788100514 | 28.33° C | 44% | 1011.3 hPa | 0 mm | - | 594 W/m² | - |
| 1788099915 | 28.33° C | 42% | 1011.3 hPa | 0 mm | - | 644 W/m² | - |
| 1788099087 | 28.33° C | 42% | 1011.3 hPa | 0 mm | - | 699 W/m² | - |
| 1788098715 | 27.78° C | 45% | 1011.5 hPa | 0 mm | - | 538 W/m² | - |
| 1788098114 | 28.33° C | 42% | 1011.5 hPa | 0 mm | - | 730 W/m² | - |
| 1788097288 | 28.33° C | 44% | 1011.6 hPa | 0 mm | - | 743 W/m² | - |
| 1788096915 | 28.33° C | 43% | 1011.7 hPa | 0 mm | - | 625 W/m² | - |
| 1788096314 | 28.33° C | 43% | 1011.7 hPa | 0 mm | - | 656 W/m² | - |
* Rain latest hour (hover to see other rain measurements)
** Current wind speed in m/s (hover to see current wind gust speed)